createdAt,value
2018-09-02T00:00:07.876Z,63.15
2018-09-02T00:02:35.974Z,61.44
2018-09-02T00:05:04.058Z,62.94
2018-09-02T00:07:32.183Z,62.92
2018-09-02T00:10:00.307Z,63.58
2018-09-02T00:12:28.397Z,64.30
2018-09-02T00:14:56.460Z,65.56
2018-09-02T00:17:24.552Z,65.37
2018-09-02T00:19:52.643Z,65.60
2018-09-02T00:22:20.995Z,66.51
2018-09-02T00:24:49.104Z,65.28
2018-09-02T00:27:17.195Z,63.50
2018-09-02T00:29:45.256Z,63.02
2018-09-02T00:32:13.411Z,62.32
2018-09-02T00:34:41.536Z,63.67
2018-09-02T00:37:09.728Z,63.93
2018-09-02T00:39:37.820Z,61.71
2018-09-02T00:42:05.963Z,60.98
2018-09-02T00:44:34.065Z,60.69
2018-09-02T00:47:02.143Z,60.31
2018-09-02T00:49:30.261Z,60.09
2018-09-02T00:51:58.329Z,59.88
2018-09-02T00:54:26.456Z,59.93
2018-09-02T00:56:54.604Z,59.46
2018-09-02T00:59:22.664Z,59.12
2018-09-02T01:01:50.756Z,59.53
2018-09-02T01:04:18.862Z,59.50
2018-09-02T01:06:46.946Z,58.84
2018-09-02T01:09:15.020Z,58.75
2018-09-02T01:11:43.088Z,59.15
2018-09-02T01:14:11.162Z,58.72
2018-09-02T01:16:39.214Z,59.21
2018-09-02T01:19:07.289Z,60.17
2018-09-02T01:21:35.367Z,59.88
2018-09-02T01:24:03.447Z,60.47
2018-09-02T01:26:31.544Z,59.25
2018-09-02T01:28:59.619Z,59.47
2018-09-02T01:31:27.731Z,59.91
2018-09-02T01:33:55.806Z,59.73
2018-09-02T01:36:23.850Z,60.64
2018-09-02T01:38:51.916Z,60.70
2018-09-02T01:41:19.999Z,60.76
2018-09-02T01:43:48.091Z,60.81
2018-09-02T01:46:16.171Z,60.45
2018-09-02T01:48:44.275Z,60.04
2018-09-02T01:51:12.341Z,60.40
2018-09-02T01:53:40.432Z,60.52
2018-09-02T01:56:08.506Z,60.44
2018-09-02T01:58:36.664Z,60.91
2018-09-02T02:01:04.702Z,59.94
2018-09-02T02:03:32.828Z,60.76
2018-09-02T02:06:00.929Z,61.05
2018-09-02T02:08:29.064Z,60.60
2018-09-02T02:10:57.139Z,60.62
2018-09-02T02:13:25.283Z,60.62
2018-09-02T02:15:53.350Z,60.58
2018-09-02T02:18:21.413Z,60.80
2018-09-02T02:20:49.529Z,61.50
2018-09-02T02:23:17.594Z,61.39
2018-09-02T02:25:45.692Z,61.32
2018-09-02T02:28:13.771Z,61.24
2018-09-02T02:30:41.843Z,60.88
2018-09-02T02:33:09.922Z,61.87
2018-09-02T02:35:38.058Z,61.48
2018-09-02T02:38:06.119Z,61.16
2018-09-02T02:40:34.182Z,61.82
2018-09-02T02:43:02.256Z,61.91
2018-09-02T02:45:30.337Z,62.25
2018-09-02T02:47:58.399Z,61.48
2018-09-02T02:50:26.467Z,62.01
2018-09-02T02:53:00.090Z,62.66
2018-09-02T02:55:28.172Z,61.75
2018-09-02T02:57:56.241Z,62.44
2018-09-02T03:00:24.317Z,62.37
2018-09-02T03:02:52.393Z,62.03
2018-09-02T03:05:20.488Z,62.63
2018-09-02T03:07:48.576Z,62.40
2018-09-02T03:10:16.744Z,62.52
2018-09-02T03:12:44.812Z,63.19
2018-09-02T03:15:12.915Z,62.72
2018-09-02T03:17:40.983Z,62.94
2018-09-02T03:20:09.059Z,62.26
2018-09-02T03:22:37.194Z,63.12
2018-09-02T03:25:05.331Z,63.16
2018-09-02T03:27:33.419Z,62.76
2018-09-02T03:30:01.512Z,63.37
2018-09-02T03:32:29.576Z,63.10
2018-09-02T03:34:57.679Z,62.71
2018-09-02T03:37:26.817Z,63.13
2018-09-02T03:39:54.899Z,63.29
2018-09-02T03:42:22.977Z,63.13
2018-09-02T03:44:51.059Z,63.35
2018-09-02T03:47:19.146Z,62.64
2018-09-02T03:49:47.244Z,62.56
2018-09-02T03:52:15.424Z,63.11
2018-09-02T03:54:43.504Z,62.94
2018-09-02T03:57:11.655Z,62.75
2018-09-02T03:59:39.686Z,63.11
2018-09-02T04:02:07.757Z,62.52
2018-09-02T04:04:35.828Z,63.16
2018-09-02T04:07:03.931Z,63.49
2018-09-02T04:09:32.023Z,63.30
2018-09-02T04:12:00.118Z,63.48
2018-09-02T04:14:28.174Z,63.58
2018-09-02T04:16:56.252Z,64.04
2018-09-02T04:19:24.311Z,63.12
2018-09-02T04:21:52.444Z,62.87
2018-09-02T04:24:20.506Z,63.39
2018-09-02T04:26:48.592Z,63.45
2018-09-02T04:29:16.682Z,63.98
2018-09-02T04:31:44.761Z,63.23
2018-09-02T04:34:12.849Z,63.50
2018-09-02T04:36:40.927Z,63.92
2018-09-02T04:39:09.575Z,63.05
2018-09-02T04:41:38.088Z,64.02
2018-09-02T04:44:06.221Z,63.97
2018-09-02T04:46:34.286Z,64.32
2018-09-02T04:49:02.501Z,64.43
2018-09-02T04:51:30.571Z,64.26
2018-09-02T04:53:58.644Z,64.57
2018-09-02T04:56:26.733Z,64.88
2018-09-02T04:58:54.779Z,64.14
2018-09-02T05:01:22.884Z,64.17
2018-09-02T05:03:50.958Z,64.89
2018-09-02T05:06:19.060Z,64.84
2018-09-02T05:08:47.134Z,64.33
2018-09-02T05:11:15.203Z,64.13
2018-09-02T05:13:43.255Z,64.78
2018-09-02T05:16:11.371Z,64.31
2018-09-02T05:18:39.430Z,64.23
2018-09-02T05:21:07.609Z,65.04
2018-09-02T05:23:35.667Z,64.62
2018-09-02T05:26:03.764Z,64.46
2018-09-02T05:28:31.827Z,63.94
2018-09-02T05:30:59.921Z,64.41
2018-09-02T05:33:27.979Z,64.95
2018-09-02T05:35:56.059Z,64.69
2018-09-02T05:38:24.150Z,65.16
2018-09-02T05:40:52.192Z,64.89
2018-09-02T05:43:20.352Z,64.57
2018-09-02T05:45:48.436Z,65.16
2018-09-02T05:48:16.548Z,64.48
2018-09-02T05:50:44.612Z,64.66
2018-09-02T05:53:12.721Z,65.28
2018-09-02T05:55:40.834Z,65.15
2018-09-02T05:58:09.056Z,64.93
2018-09-02T06:00:37.216Z,65.10
2018-09-02T06:03:05.315Z,65.07
2018-09-02T06:05:33.437Z,65.39
2018-09-02T06:08:01.598Z,65.64
2018-09-02T06:10:29.715Z,64.86
2018-09-02T06:12:57.856Z,65.28
2018-09-02T06:15:25.944Z,65.14
2018-09-02T06:17:54.038Z,64.34
2018-09-02T06:20:22.184Z,64.39
2018-09-02T06:22:50.368Z,64.74
2018-09-02T06:25:18.456Z,64.55
2018-09-02T06:27:46.591Z,64.79
2018-09-02T06:30:14.791Z,64.85
2018-09-02T06:32:42.831Z,64.66
2018-09-02T06:35:10.916Z,64.93
2018-09-02T06:37:38.993Z,64.41
2018-09-02T06:40:07.228Z,64.79
2018-09-02T06:42:35.363Z,64.38
2018-09-02T06:45:03.487Z,64.30
2018-09-02T06:47:31.583Z,64.61
2018-09-02T06:49:59.677Z,63.71
2018-09-02T06:52:27.806Z,63.34
2018-09-02T06:54:55.900Z,63.85
2018-09-02T06:57:24.008Z,63.50
2018-09-02T06:59:52.150Z,63.73
2018-09-02T07:02:20.384Z,63.03
2018-09-02T07:04:48.522Z,63.55
2018-09-02T07:07:16.673Z,63.26
2018-09-02T07:09:44.727Z,63.55
2018-09-02T07:12:12.823Z,62.92
2018-09-02T07:14:40.948Z,62.33
2018-09-02T07:17:09.385Z,63.30
2018-09-02T07:19:37.445Z,62.79
2018-09-02T07:22:05.515Z,62.97
2018-09-02T07:24:33.628Z,62.56
2018-09-02T07:27:01.749Z,62.43
2018-09-02T07:29:29.864Z,62.32
2018-09-02T07:31:58.034Z,63.02
2018-09-02T07:34:26.151Z,62.36
2018-09-02T07:36:54.234Z,62.75
2018-09-02T07:39:22.407Z,62.52
2018-09-02T07:41:50.552Z,61.94
2018-09-02T07:44:18.669Z,62.46
2018-09-02T07:46:53.440Z,62.45
2018-09-02T07:49:21.532Z,62.24
2018-09-02T07:51:51.323Z,61.73
2018-09-02T07:54:19.560Z,60.95
2018-09-02T07:56:52.397Z,61.54
2018-09-02T07:59:20.663Z,60.45
2018-09-02T08:01:48.868Z,60.67
2018-09-02T08:04:17.072Z,60.10
2018-09-02T08:06:45.276Z,59.39
2018-09-02T08:09:16.874Z,59.19
2018-09-02T08:11:55.415Z,59.45
2018-09-02T08:14:32.035Z,59.37
2018-09-02T08:17:03.398Z,59.37
2018-09-02T08:19:31.669Z,59.19
2018-09-02T08:22:03.636Z,59.08
2018-09-02T08:24:34.386Z,59.18
2018-09-02T08:27:02.505Z,59.35
2018-09-02T08:29:30.629Z,58.54
2018-09-02T08:31:58.787Z,58.47
2018-09-02T08:34:26.965Z,58.57
2018-09-02T08:36:55.650Z,58.61
2018-09-02T08:39:24.745Z,59.12
2018-09-02T08:41:54.818Z,59.73
2018-09-02T08:44:23.331Z,58.75
2018-09-02T08:46:51.629Z,59.47
2018-09-02T08:49:20.372Z,58.94
2018-09-02T08:51:50.066Z,58.60
2018-09-02T08:54:20.187Z,59.24
2018-09-02T08:56:48.567Z,58.98
2018-09-02T08:59:18.103Z,59.11
2018-09-02T09:01:46.652Z,58.76
2018-09-02T09:04:15.558Z,58.39
2018-09-02T09:06:43.773Z,57.91
2018-09-02T09:09:40.737Z,57.74
2018-09-02T09:12:09.384Z,58.23
2018-09-02T09:14:40.469Z,58.66
2018-09-02T09:17:09.390Z,58.48
2018-09-02T09:19:45.011Z,58.01
2018-09-02T09:22:24.329Z,58.37
2018-09-02T09:24:55.226Z,58.78
2018-09-02T09:27:23.532Z,57.96
2018-09-02T09:29:51.958Z,57.70
2018-09-02T09:32:29.126Z,57.67
2018-09-02T09:34:57.827Z,56.19
2018-09-02T09:37:29.993Z,56.62
2018-09-02T09:40:02.321Z,56.73
2018-09-02T09:42:44.457Z,56.36
2018-09-02T09:45:13.523Z,56.60
2018-09-02T09:47:42.312Z,56.79
2018-09-02T09:50:11.462Z,56.24
2018-09-02T09:52:40.310Z,56.92
2018-09-02T09:55:11.062Z,56.00
2018-09-02T09:57:45.394Z,55.51
2018-09-02T10:00:23.031Z,55.84
2018-09-02T10:02:53.125Z,55.60
2018-09-02T10:05:23.835Z,56.51
2018-09-02T10:07:54.376Z,55.94
2018-09-02T10:10:23.100Z,55.84
2018-09-02T10:12:52.006Z,55.52
2018-09-02T10:15:20.379Z,56.66
2018-09-02T10:17:49.691Z,56.05
2018-09-02T10:20:19.030Z,56.58
2018-09-02T10:22:55.379Z,55.73
2018-09-02T10:25:24.028Z,56.65
2018-09-02T10:27:55.395Z,56.18
2018-09-02T10:30:27.537Z,56.25
2018-09-02T10:33:06.302Z,56.08
2018-09-02T10:35:41.065Z,56.48
2018-09-02T10:40:50.275Z,56.58
2018-09-02T10:43:18.627Z,56.83
2018-09-02T10:45:46.992Z,56.41
2018-09-02T10:48:15.636Z,55.98
2018-09-02T10:50:47.709Z,56.64
2018-09-02T10:53:16.238Z,56.82
2018-09-02T10:55:45.512Z,57.18
2018-09-02T10:58:13.871Z,57.22
2018-09-02T11:00:43.074Z,56.91
2018-09-02T11:03:11.401Z,56.43
2018-09-02T11:05:39.994Z,56.74
2018-09-02T11:08:15.269Z,56.82
2018-09-02T11:10:58.058Z,57.11
2018-09-02T11:13:26.466Z,56.62
2018-09-02T11:15:54.724Z,57.00
2018-09-02T11:18:23.361Z,56.90
2018-09-02T11:20:51.499Z,56.51
2018-09-02T11:23:19.600Z,56.14
2018-09-02T11:25:47.739Z,55.73
2018-09-02T11:28:16.008Z,56.06
2018-09-02T11:30:44.199Z,56.01
2018-09-02T11:33:12.381Z,56.17
2018-09-02T11:35:40.529Z,56.92
2018-09-02T11:38:08.634Z,55.98
2018-09-02T11:40:36.716Z,56.16
2018-09-02T11:43:04.991Z,56.72
2018-09-02T11:45:33.127Z,57.12
2018-09-02T11:48:01.210Z,56.60
2018-09-02T11:50:29.436Z,56.87
2018-09-02T11:53:02.910Z,56.22
2018-09-02T11:55:31.042Z,56.40
2018-09-02T11:57:59.202Z,56.85
2018-09-02T12:00:27.397Z,56.64
2018-09-02T12:02:56.514Z,56.28
2018-09-02T12:05:24.618Z,56.91
2018-09-02T12:07:52.948Z,56.12
2018-09-02T12:10:21.023Z,57.03
2018-09-02T12:12:49.260Z,56.38
2018-09-02T12:15:17.384Z,56.33
2018-09-02T12:17:45.485Z,56.43
2018-09-02T12:20:13.555Z,55.95
2018-09-02T12:22:41.661Z,55.15
2018-09-02T12:25:09.772Z,56.16
2018-09-02T12:27:37.876Z,54.77
2018-09-02T12:30:06.192Z,55.45
2018-09-02T12:32:34.285Z,55.94
2018-09-02T12:35:02.432Z,55.75
2018-09-02T12:37:30.503Z,55.45
2018-09-02T12:39:58.603Z,55.58
2018-09-02T12:42:26.700Z,55.47
2018-09-02T12:44:54.783Z,55.31
2018-09-02T12:47:22.869Z,55.61
2018-09-02T12:49:50.924Z,55.12
2018-09-02T12:52:19.018Z,55.96
2018-09-02T12:54:47.076Z,55.74
2018-09-02T12:57:15.164Z,55.25
2018-09-02T12:59:43.212Z,55.39
2018-09-02T13:02:12.087Z,55.43
2018-09-02T13:04:40.232Z,55.38
2018-09-02T13:07:08.339Z,55.65
2018-09-02T13:09:36.457Z,55.62
2018-09-02T13:12:04.598Z,56.49
2018-09-02T13:14:32.675Z,56.53
2018-09-02T13:17:00.904Z,56.67
2018-09-02T13:19:29.389Z,56.55
2018-09-02T13:21:58.914Z,56.37
2018-09-02T13:24:27.900Z,56.74
2018-09-02T13:26:57.519Z,56.96
2018-09-02T13:29:25.774Z,57.10
2018-09-02T13:31:54.151Z,57.41
2018-09-02T13:34:23.274Z,57.75
2018-09-02T13:36:52.356Z,57.25
2018-09-02T13:39:20.955Z,57.62
2018-09-02T13:41:53.380Z,57.66
2018-09-02T13:44:33.654Z,58.71
2018-09-02T13:47:06.184Z,57.70
2018-09-02T13:49:34.720Z,57.64
2018-09-02T13:52:03.236Z,57.09
2018-09-02T13:54:31.588Z,57.48
2018-09-02T13:56:59.833Z,57.62
2018-09-02T13:59:28.613Z,57.38
2018-09-02T14:01:57.005Z,57.13
2018-09-02T14:04:25.279Z,57.10
2018-09-02T14:06:54.662Z,57.92
2018-09-02T14:09:22.867Z,56.97
2018-09-02T14:11:51.339Z,56.69
2018-09-02T14:14:20.492Z,56.64
2018-09-02T14:16:49.164Z,57.39
2018-09-02T14:19:17.427Z,57.50
2018-09-02T14:21:45.636Z,57.47
2018-09-02T14:24:15.384Z,57.03
2018-09-02T14:26:43.665Z,57.46
2018-09-02T14:29:12.985Z,57.58
2018-09-02T14:31:41.310Z,56.69
2018-09-02T14:34:09.843Z,57.83
2018-09-02T14:36:38.170Z,57.36
2018-09-02T14:39:09.011Z,57.18
2018-09-02T14:41:37.914Z,57.23
2018-09-02T14:44:06.195Z,56.75
2018-09-02T14:46:34.540Z,56.00
2018-09-02T14:49:04.253Z,56.62
2018-09-02T14:51:33.829Z,56.15
2018-09-02T14:54:02.239Z,56.90
2018-09-02T14:56:30.533Z,56.22
2018-09-02T14:58:59.000Z,57.14
2018-09-02T15:01:35.936Z,56.60
2018-09-02T15:04:05.080Z,56.58
2018-09-02T15:06:35.284Z,57.07
2018-09-02T15:09:03.779Z,57.83
2018-09-02T15:11:31.883Z,57.95
2018-09-02T15:13:59.964Z,57.84
2018-09-02T15:16:28.041Z,58.25
2018-09-02T15:18:56.352Z,59.36
2018-09-02T15:21:24.685Z,58.56
2018-09-02T15:23:52.722Z,58.89
2018-09-02T15:26:20.819Z,59.59
2018-09-02T15:28:48.891Z,59.94
2018-09-02T15:31:16.994Z,59.86
2018-09-02T15:33:45.141Z,60.19
2018-09-02T15:36:13.296Z,60.11
2018-09-02T15:38:41.386Z,60.29
2018-09-02T15:41:09.463Z,59.69
2018-09-02T15:43:37.609Z,59.68
2018-09-02T15:46:05.843Z,59.70
2018-09-02T15:48:33.944Z,60.46
2018-09-02T15:51:02.065Z,60.10
2018-09-02T15:53:30.205Z,60.00
2018-09-02T15:55:58.305Z,60.81
2018-09-02T15:58:26.396Z,60.37
2018-09-02T16:00:54.559Z,61.22
2018-09-02T16:03:22.640Z,61.35
2018-09-02T16:05:50.728Z,60.57
2018-09-02T16:08:18.863Z,60.60
2018-09-02T16:10:46.936Z,60.46
2018-09-02T16:13:15.085Z,60.91
2018-09-02T16:15:43.218Z,61.32
2018-09-02T16:18:11.373Z,61.10
2018-09-02T16:20:39.516Z,62.24
2018-09-02T16:23:07.620Z,61.45
2018-09-02T16:25:35.764Z,62.44
2018-09-02T16:28:03.971Z,62.47
2018-09-02T16:30:32.064Z,61.70
2018-09-02T16:33:00.236Z,61.63
2018-09-02T16:35:28.324Z,61.68
2018-09-02T16:37:56.511Z,62.36
2018-09-02T16:40:24.654Z,62.36
2018-09-02T16:42:52.764Z,61.90
2018-09-02T16:45:20.907Z,62.14
2018-09-02T16:47:49.039Z,62.74
2018-09-02T16:50:17.230Z,62.48
2018-09-02T16:52:46.267Z,62.30
2018-09-02T16:55:14.552Z,62.97
2018-09-02T16:57:43.589Z,62.18
2018-09-02T17:00:18.062Z,62.44
2018-09-02T17:02:46.313Z,62.72
2018-09-02T17:05:22.550Z,62.22
2018-09-02T17:07:57.773Z,62.11
2018-09-02T17:10:30.948Z,62.71
2018-09-02T17:13:01.365Z,62.77
2018-09-02T17:15:30.539Z,63.43
2018-09-02T17:18:00.337Z,63.41
2018-09-02T17:20:32.429Z,62.58
2018-09-02T17:23:06.768Z,62.87
2018-09-02T17:25:38.489Z,63.53
2018-09-02T17:28:07.546Z,63.21
2018-09-02T17:30:38.034Z,63.86
2018-09-02T17:33:08.210Z,63.20
2018-09-02T17:35:36.569Z,63.69
2018-09-02T17:38:05.877Z,64.26
2018-09-02T17:40:42.274Z,64.12
2018-09-02T17:43:12.221Z,63.94
2018-09-02T17:45:43.956Z,63.87
2018-09-02T17:48:14.106Z,64.01
2018-09-02T17:50:43.236Z,63.83
2018-09-02T17:53:17.197Z,64.66
2018-09-02T17:55:45.647Z,64.86
2018-09-02T17:58:14.768Z,65.11
2018-09-02T18:00:45.738Z,65.30
2018-09-02T18:03:13.912Z,65.49
2018-09-02T18:05:43.089Z,65.75
2018-09-02T18:08:11.877Z,65.32
2018-09-02T18:10:40.917Z,65.39
2018-09-02T18:13:22.738Z,65.43
2018-09-02T18:18:30.882Z,65.80
2018-09-02T18:21:01.919Z,67.14
2018-09-02T18:23:30.869Z,66.35
2018-09-02T18:25:59.135Z,66.66
2018-09-02T18:28:42.978Z,67.14
2018-09-02T18:31:13.501Z,67.25
2018-09-02T18:33:41.886Z,67.62
2018-09-02T18:36:10.629Z,67.26
2018-09-02T18:38:50.118Z,67.42
2018-09-02T18:41:19.198Z,68.30
2018-09-02T18:43:47.540Z,68.37
2018-09-02T18:46:17.307Z,68.90
2018-09-02T18:48:45.532Z,68.67
2018-09-02T18:51:13.670Z,68.81
2018-09-02T18:53:42.737Z,69.07
2018-09-02T18:56:11.934Z,69.45
2018-09-02T18:58:40.230Z,69.48
2018-09-02T19:01:08.484Z,69.38
2018-09-02T19:03:36.785Z,68.95
2018-09-02T19:06:06.945Z,69.93
2018-09-02T19:08:38.770Z,69.60
2018-09-02T19:11:10.733Z,69.55
2018-09-02T19:13:43.007Z,69.75
2018-09-02T19:16:12.292Z,69.70
2018-09-02T19:18:41.330Z,69.55
2018-09-02T19:21:12.179Z,69.44
2018-09-02T19:26:37.088Z,70.05
2018-09-02T19:29:06.723Z,70.11
2018-09-02T19:31:44.482Z,70.59
2018-09-02T19:36:49.413Z,70.48
2018-09-02T19:39:18.669Z,70.58
2018-09-02T19:41:48.727Z,71.18
2018-09-02T19:44:26.708Z,71.11
2018-09-02T19:46:56.480Z,70.94
2018-09-02T19:49:28.936Z,71.05
2018-09-02T19:51:57.465Z,71.60
2018-09-02T19:54:26.052Z,71.40
2018-09-02T19:56:54.283Z,71.63
2018-09-02T19:59:22.438Z,71.39
2018-09-02T20:01:59.043Z,71.15
2018-09-02T20:04:31.352Z,71.23
2018-09-02T20:07:11.183Z,71.39
2018-09-02T20:09:40.352Z,71.20
2018-09-02T20:12:10.563Z,71.36
2018-09-02T20:14:40.705Z,71.38
2018-09-02T20:17:09.720Z,71.60
2018-09-02T20:19:41.839Z,71.94
2018-09-02T20:22:13.439Z,72.30
2018-09-02T20:24:51.759Z,72.45
2018-09-02T20:27:44.894Z,72.82
2018-09-02T20:30:20.075Z,72.84
2018-09-02T20:32:50.540Z,72.96
2018-09-02T20:35:21.946Z,73.25
2018-09-02T20:37:59.884Z,73.51
2018-09-02T20:40:33.204Z,73.27
2018-09-02T20:43:01.580Z,72.62
2018-09-02T20:45:33.156Z,73.30
2018-09-02T20:48:10.147Z,72.61
2018-09-02T20:50:38.390Z,73.28
2018-09-02T20:53:07.641Z,73.24
2018-09-02T20:55:36.115Z,73.02
2018-09-02T20:58:05.018Z,73.56
2018-09-02T21:00:33.623Z,73.31
2018-09-02T21:03:01.794Z,73.58
2018-09-02T21:05:30.154Z,73.56
2018-09-02T21:07:59.804Z,73.62
2018-09-02T21:10:27.975Z,74.31
2018-09-02T21:12:56.138Z,73.75
2018-09-02T21:15:24.841Z,74.60
2018-09-02T21:17:55.850Z,74.18
2018-09-02T21:20:24.078Z,74.89
2018-09-02T21:22:53.238Z,74.49
2018-09-02T21:25:21.492Z,74.58
2018-09-02T21:27:49.739Z,74.94
2018-09-02T21:30:19.021Z,74.89
2018-09-02T21:32:48.518Z,74.25
2018-09-02T21:35:17.036Z,75.14
2018-09-02T21:37:45.198Z,74.72
2018-09-02T21:40:13.608Z,74.57
2018-09-02T21:42:46.983Z,75.11
2018-09-02T21:45:15.159Z,75.09
2018-09-02T21:47:44.000Z,74.93
2018-09-02T21:50:19.351Z,75.18
2018-09-02T21:52:47.564Z,75.57
2018-09-02T21:55:16.330Z,75.52
2018-09-02T21:57:45.147Z,75.56
2018-09-02T22:00:17.332Z,75.00
2018-09-02T22:02:46.891Z,74.91
2018-09-02T22:05:15.898Z,75.10
2018-09-02T22:07:44.823Z,74.88
2018-09-02T22:10:13.391Z,75.40
2018-09-02T22:12:42.715Z,75.93
2018-09-02T22:15:11.529Z,75.64
2018-09-02T22:17:39.709Z,75.54
2018-09-02T22:20:08.278Z,75.13
2018-09-02T22:22:36.540Z,75.67
2018-09-02T22:25:05.480Z,74.86
2018-09-02T22:27:34.304Z,75.02
2018-09-02T22:30:05.567Z,74.61
2018-09-02T22:32:33.879Z,74.88
2018-09-02T22:35:02.059Z,75.27
2018-09-02T22:37:30.293Z,75.79
2018-09-02T22:39:58.474Z,75.27
2018-09-02T22:42:26.988Z,75.75
2018-09-02T22:44:55.777Z,75.52
2018-09-02T22:47:25.175Z,75.14
2018-09-02T22:49:54.165Z,75.18
2018-09-02T22:52:22.433Z,75.79
2018-09-02T22:55:04.093Z,75.48
2018-09-02T22:57:33.675Z,75.15
2018-09-02T23:00:02.009Z,75.33
2018-09-02T23:02:30.965Z,75.01
2018-09-02T23:04:59.995Z,74.98
2018-09-02T23:07:29.686Z,75.11
2018-09-02T23:09:57.828Z,74.64
2018-09-02T23:12:26.314Z,75.19
2018-09-02T23:14:54.595Z,75.26
2018-09-02T23:17:22.896Z,75.45
2018-09-02T23:20:11.805Z,75.31
2018-09-02T23:22:44.234Z,75.13
2018-09-02T23:25:16.193Z,75.17
2018-09-02T23:27:45.404Z,76.22
2018-09-02T23:30:14.299Z,76.09
2018-09-02T23:32:44.055Z,75.23
2018-09-02T23:35:14.169Z,75.55
2018-09-02T23:37:44.813Z,75.22
2018-09-02T23:40:14.498Z,75.56
2018-09-02T23:42:42.714Z,74.88
2018-09-02T23:45:11.049Z,75.94
2018-09-02T23:47:39.137Z,76.54
2018-09-02T23:50:07.240Z,75.42
2018-09-02T23:52:35.404Z,76.18
2018-09-02T23:55:03.500Z,75.94
2018-09-02T23:57:31.611Z,75.50
